sensor_id;sensor_type;location;lat;lon;timestamp;temperature;humidity
14531;DHT22;7352;50.866;4.366;2022-12-04T00:02:21;3.80;99.90
14531;DHT22;7352;50.866;4.366;2022-12-04T00:04:48;3.70;99.90
14531;DHT22;7352;50.866;4.366;2022-12-04T00:07:15;3.80;99.90
14531;DHT22;7352;50.866;4.366;2022-12-04T00:09:42;3.70;99.90
14531;DHT22;7352;50.866;4.366;2022-12-04T00:12:09;3.70;99.90
14531;DHT22;7352;50.866;4.366;2022-12-04T00:14:36;3.60;99.90
14531;DHT22;7352;50.866;4.366;2022-12-04T00:17:03;3.60;99.90
14531;DHT22;7352;50.866;4.366;2022-12-04T00:19:32;3.70;99.90
14531;DHT22;7352;50.866;4.366;2022-12-04T00:22:01;3.70;99.90
14531;DHT22;7352;50.866;4.366;2022-12-04T00:24:31;3.60;99.90
14531;DHT22;7352;50.866;4.366;2022-12-04T00:26:58;3.70;99.90
14531;DHT22;7352;50.866;4.366;2022-12-04T00:29:25;3.60;99.90
14531;DHT22;7352;50.866;4.366;2022-12-04T00:31:52;3.50;99.90
14531;DHT22;7352;50.866;4.366;2022-12-04T00:34:20;3.50;99.90
14531;DHT22;7352;50.866;4.366;2022-12-04T00:36:49;3.50;99.90
14531;DHT22;7352;50.866;4.366;2022-12-04T00:39:16;3.50;99.90
14531;DHT22;7352;50.866;4.366;2022-12-04T00:41:43;3.40;99.90
14531;DHT22;7352;50.866;4.366;2022-12-04T00:44:16;3.20;99.90
14531;DHT22;7352;50.866;4.366;2022-12-04T00:46:43;3.30;99.90
14531;DHT22;7352;50.866;4.366;2022-12-04T00:49:10;3.30;99.90
14531;DHT22;7352;50.866;4.366;2022-12-04T00:51:45;3.40;99.90
14531;DHT22;7352;50.866;4.366;2022-12-04T00:54:14;3.40;99.90
14531;DHT22;7352;50.866;4.366;2022-12-04T00:56:41;3.40;99.90
14531;DHT22;7352;50.866;4.366;2022-12-04T00:59:09;3.40;99.90
14531;DHT22;7352;50.866;4.366;2022-12-04T01:01:36;3.60;99.90
14531;DHT22;7352;50.866;4.366;2022-12-04T01:04:03;3.70;99.90
14531;DHT22;7352;50.866;4.366;2022-12-04T01:06:32;3.60;99.90
14531;DHT22;7352;50.866;4.366;2022-12-04T01:09:00;3.60;99.90
14531;DHT22;7352;50.866;4.366;2022-12-04T01:11:30;3.60;99.90
14531;DHT22;7352;50.866;4.366;2022-12-04T01:13:58;3.60;99.90
14531;DHT22;7352;50.866;4.366;2022-12-04T01:16:27;3.50;99.90
14531;DHT22;7352;50.866;4.366;2022-12-04T01:18:54;3.50;99.90
14531;DHT22;7352;50.866;4.366;2022-12-04T01:21:21;3.50;99.90
14531;DHT22;7352;50.866;4.366;2022-12-04T01:23:49;3.50;99.90
14531;DHT22;7352;50.866;4.366;2022-12-04T01:26:16;3.70;99.90
14531;DHT22;7352;50.866;4.366;2022-12-04T01:28:44;3.80;99.90
14531;DHT22;7352;50.866;4.366;2022-12-04T01:31:13;3.80;99.90
14531;DHT22;7352;50.866;4.366;2022-12-04T01:33:41;3.60;99.90
14531;DHT22;7352;50.866;4.366;2022-12-04T01:36:11;3.70;99.90
14531;DHT22;7352;50.866;4.366;2022-12-04T01:38:39;3.50;99.90
14531;DHT22;7352;50.866;4.366;2022-12-04T01:41:10;3.50;99.90
14531;DHT22;7352;50.866;4.366;2022-12-04T01:43:39;3.40;99.90
14531;DHT22;7352;50.866;4.366;2022-12-04T01:46:08;3.50;99.90
14531;DHT22;7352;50.866;4.366;2022-12-04T01:48:38;3.40;99.90
14531;DHT22;7352;50.866;4.366;2022-12-04T01:51:14;3.50;99.90
14531;DHT22;7352;50.866;4.366;2022-12-04T01:53:48;3.60;99.90
14531;DHT22;7352;50.866;4.366;2022-12-04T01:56:17;3.50;99.90
14531;DHT22;7352;50.866;4.366;2022-12-04T01:58:51;3.50;99.90
14531;DHT22;7352;50.866;4.366;2022-12-04T02:01:30;3.50;99.90
14531;DHT22;7352;50.866;4.366;2022-12-04T02:04:01;3.60;99.90
14531;DHT22;7352;50.866;4.366;2022-12-04T02:06:28;3.50;99.90
14531;DHT22;7352;50.866;4.366;2022-12-04T02:08:56;3.50;99.90
14531;DHT22;7352;50.866;4.366;2022-12-04T02:11:28;3.40;99.90
14531;DHT22;7352;50.866;4.366;2022-12-04T02:14:05;3.40;99.90
14531;DHT22;7352;50.866;4.366;2022-12-04T02:16:53;3.60;99.90
14531;DHT22;7352;50.866;4.366;2022-12-04T02:19:59;3.60;99.90
14531;DHT22;7352;50.866;4.366;2022-12-04T02:22:52;3.60;99.90
14531;DHT22;7352;50.866;4.366;2022-12-04T02:25:28;3.70;99.90
14531;DHT22;7352;50.866;4.366;2022-12-04T02:28:04;3.80;99.90
14531;DHT22;7352;50.866;4.366;2022-12-04T02:30:36;3.70;99.90
14531;DHT22;7352;50.866;4.366;2022-12-04T02:33:09;3.70;99.90
14531;DHT22;7352;50.866;4.366;2022-12-04T02:35:41;3.70;99.90
14531;DHT22;7352;50.866;4.366;2022-12-04T02:38:15;3.60;99.90
14531;DHT22;7352;50.866;4.366;2022-12-04T02:40:50;3.60;99.90
14531;DHT22;7352;50.866;4.366;2022-12-04T02:43:23;3.60;99.90
14531;DHT22;7352;50.866;4.366;2022-12-04T02:45:57;3.70;99.90
14531;DHT22;7352;50.866;4.366;2022-12-04T02:48:25;3.70;99.90
14531;DHT22;7352;50.866;4.366;2022-12-04T02:50:55;3.60;99.90
14531;DHT22;7352;50.866;4.366;2022-12-04T02:53:29;3.60;99.90
14531;DHT22;7352;50.866;4.366;2022-12-04T02:56:00;3.50;99.90
14531;DHT22;7352;50.866;4.366;2022-12-04T02:58:32;3.60;99.90
14531;DHT22;7352;50.866;4.366;2022-12-04T03:01:07;3.70;99.90
14531;DHT22;7352;50.866;4.366;2022-12-04T03:03:47;3.70;99.90
14531;DHT22;7352;50.866;4.366;2022-12-04T03:06:16;3.60;99.90
14531;DHT22;7352;50.866;4.366;2022-12-04T03:08:46;3.70;99.90
14531;DHT22;7352;50.866;4.366;2022-12-04T03:11:25;3.70;99.90
14531;DHT22;7352;50.866;4.366;2022-12-04T03:13:57;3.60;99.90
14531;DHT22;7352;50.866;4.366;2022-12-04T03:16:30;3.70;99.90
14531;DHT22;7352;50.866;4.366;2022-12-04T03:19:03;3.70;99.90
14531;DHT22;7352;50.866;4.366;2022-12-04T03:21:35;3.70;99.90
14531;DHT22;7352;50.866;4.366;2022-12-04T03:24:07;3.70;99.90
14531;DHT22;7352;50.866;4.366;2022-12-04T03:26:42;3.50;99.90
14531;DHT22;7352;50.866;4.366;2022-12-04T03:29:20;3.60;99.90
14531;DHT22;7352;50.866;4.366;2022-12-04T03:31:56;3.70;99.90
14531;DHT22;7352;50.866;4.366;2022-12-04T03:34:29;3.70;99.90
14531;DHT22;7352;50.866;4.366;2022-12-04T03:37:00;3.80;99.90
14531;DHT22;7352;50.866;4.366;2022-12-04T03:39:33;3.70;99.90
14531;DHT22;7352;50.866;4.366;2022-12-04T03:42:05;3.60;99.90
14531;DHT22;7352;50.866;4.366;2022-12-04T03:44:38;3.60;99.90
14531;DHT22;7352;50.866;4.366;2022-12-04T03:47:12;3.70;99.90
14531;DHT22;7352;50.866;4.366;2022-12-04T03:49:45;3.80;99.90
14531;DHT22;7352;50.866;4.366;2022-12-04T03:52:19;3.70;99.90
14531;DHT22;7352;50.866;4.366;2022-12-04T03:54:50;3.70;99.90
14531;DHT22;7352;50.866;4.366;2022-12-04T03:57:23;3.60;99.90
14531;DHT22;7352;50.866;4.366;2022-12-04T03:59:59;3.70;99.90
14531;DHT22;7352;50.866;4.366;2022-12-04T04:02:32;3.70;99.90
14531;DHT22;7352;50.866;4.366;2022-12-04T04:05:02;3.90;99.90
14531;DHT22;7352;50.866;4.366;2022-12-04T04:07:34;3.90;99.90
14531;DHT22;7352;50.866;4.366;2022-12-04T04:10:06;3.80;99.90
14531;DHT22;7352;50.866;4.366;2022-12-04T04:12:39;3.90;99.90
14531;DHT22;7352;50.866;4.366;2022-12-04T04:15:13;3.80;99.90
14531;DHT22;7352;50.866;4.366;2022-12-04T04:18:00;3.80;99.90
14531;DHT22;7352;50.866;4.366;2022-12-04T04:20:47;3.90;99.90
14531;DHT22;7352;50.866;4.366;2022-12-04T04:23:40;4.10;99.90
14531;DHT22;7352;50.866;4.366;2022-12-04T04:26:31;4.10;99.90
14531;DHT22;7352;50.866;4.366;2022-12-04T04:29:02;4.10;99.90
14531;DHT22;7352;50.866;4.366;2022-12-04T04:31:35;4.10;99.90
14531;DHT22;7352;50.866;4.366;2022-12-04T04:34:11;4.10;99.90
14531;DHT22;7352;50.866;4.366;2022-12-04T04:36:50;4.00;99.90
14531;DHT22;7352;50.866;4.366;2022-12-04T04:39:24;3.90;99.90
14531;DHT22;7352;50.866;4.366;2022-12-04T04:41:57;3.90;99.90
14531;DHT22;7352;50.866;4.366;2022-12-04T04:44:30;3.80;99.90
14531;DHT22;7352;50.866;4.366;2022-12-04T04:47:04;3.90;99.90
14531;DHT22;7352;50.866;4.366;2022-12-04T04:49:35;4.00;99.90
14531;DHT22;7352;50.866;4.366;2022-12-04T04:52:03;4.10;99.90
14531;DHT22;7352;50.866;4.366;2022-12-04T04:54:33;4.00;99.90
14531;DHT22;7352;50.866;4.366;2022-12-04T04:57:01;4.00;99.90
14531;DHT22;7352;50.866;4.366;2022-12-04T04:59:29;3.90;99.90
14531;DHT22;7352;50.866;4.366;2022-12-04T05:01:56;3.90;99.90
14531;DHT22;7352;50.866;4.366;2022-12-04T05:04:25;4.00;99.90
14531;DHT22;7352;50.866;4.366;2022-12-04T05:06:51;4.10;99.90
14531;DHT22;7352;50.866;4.366;2022-12-04T05:09:18;4.10;99.90
14531;DHT22;7352;50.866;4.366;2022-12-04T05:11:45;4.00;99.90
14531;DHT22;7352;50.866;4.366;2022-12-04T05:14:12;3.90;99.90
14531;DHT22;7352;50.866;4.366;2022-12-04T05:16:39;4.20;99.90
14531;DHT22;7352;50.866;4.366;2022-12-04T05:19:06;4.10;99.90
14531;DHT22;7352;50.866;4.366;2022-12-04T05:21:52;4.20;99.90
14531;DHT22;7352;50.866;4.366;2022-12-04T05:24:21;4.10;99.90
14531;DHT22;7352;50.866;4.366;2022-12-04T05:26:48;4.10;99.90
14531;DHT22;7352;50.866;4.366;2022-12-04T05:29:15;4.00;99.90
14531;DHT22;7352;50.866;4.366;2022-12-04T05:31:42;4.00;99.90
14531;DHT22;7352;50.866;4.366;2022-12-04T05:34:09;4.00;99.90
14531;DHT22;7352;50.866;4.366;2022-12-04T05:36:36;4.10;99.90
14531;DHT22;7352;50.866;4.366;2022-12-04T05:39:05;3.90;99.90
14531;DHT22;7352;50.866;4.366;2022-12-04T05:41:32;3.80;99.90
14531;DHT22;7352;50.866;4.366;2022-12-04T05:43:59;3.90;99.90
14531;DHT22;7352;50.866;4.366;2022-12-04T05:46:26;3.90;99.90
14531;DHT22;7352;50.866;4.366;2022-12-04T05:48:59;3.90;99.90
14531;DHT22;7352;50.866;4.366;2022-12-04T05:51:26;4.00;99.90
14531;DHT22;7352;50.866;4.366;2022-12-04T05:53:53;3.80;99.90
14531;DHT22;7352;50.866;4.366;2022-12-04T05:56:21;3.80;99.90
14531;DHT22;7352;50.866;4.366;2022-12-04T05:58:48;3.90;99.90
14531;DHT22;7352;50.866;4.366;2022-12-04T06:01:17;3.80;99.90
14531;DHT22;7352;50.866;4.366;2022-12-04T06:03:44;3.80;99.90
14531;DHT22;7352;50.866;4.366;2022-12-04T06:06:14;3.90;99.90
14531;DHT22;7352;50.866;4.366;2022-12-04T06:08:41;4.00;99.90
14531;DHT22;7352;50.866;4.366;2022-12-04T06:11:17;4.00;99.90
14531;DHT22;7352;50.866;4.366;2022-12-04T06:13:47;3.90;99.90
14531;DHT22;7352;50.866;4.366;2022-12-04T06:16:19;4.10;99.90
14531;DHT22;7352;50.866;4.366;2022-12-04T06:18:48;4.20;99.90
14531;DHT22;7352;50.866;4.366;2022-12-04T06:21:16;4.00;99.90
14531;DHT22;7352;50.866;4.366;2022-12-04T06:23:43;3.90;99.90
14531;DHT22;7352;50.866;4.366;2022-12-04T06:26:10;4.00;99.90
14531;DHT22;7352;50.866;4.366;2022-12-04T06:28:37;4.00;99.90
14531;DHT22;7352;50.866;4.366;2022-12-04T06:31:07;3.90;99.90
14531;DHT22;7352;50.866;4.366;2022-12-04T06:33:35;3.80;99.90
14531;DHT22;7352;50.866;4.366;2022-12-04T06:36:04;3.90;99.90
14531;DHT22;7352;50.866;4.366;2022-12-04T06:38:32;4.00;99.90
14531;DHT22;7352;50.866;4.366;2022-12-04T06:41:02;4.10;99.90
14531;DHT22;7352;50.866;4.366;2022-12-04T06:43:31;3.90;99.90
14531;DHT22;7352;50.866;4.366;2022-12-04T06:46:03;4.00;99.90
14531;DHT22;7352;50.866;4.366;2022-12-04T06:48:35;4.10;99.90
14531;DHT22;7352;50.866;4.366;2022-12-04T06:51:05;4.10;99.90
14531;DHT22;7352;50.866;4.366;2022-12-04T06:53:33;4.10;99.90
14531;DHT22;7352;50.866;4.366;2022-12-04T06:56:02;4.00;99.90
14531;DHT22;7352;50.866;4.366;2022-12-04T06:58:32;4.00;99.90
14531;DHT22;7352;50.866;4.366;2022-12-04T07:01:05;4.00;99.90
14531;DHT22;7352;50.866;4.366;2022-12-04T07:03:32;4.00;99.90
14531;DHT22;7352;50.866;4.366;2022-12-04T07:06:14;4.00;99.90
14531;DHT22;7352;50.866;4.366;2022-12-04T07:08:58;4.20;99.90
14531;DHT22;7352;50.866;4.366;2022-12-04T07:11:25;4.00;99.90
14531;DHT22;7352;50.866;4.366;2022-12-04T07:13:54;4.00;99.90
14531;DHT22;7352;50.866;4.366;2022-12-04T07:16:23;4.00;99.90
14531;DHT22;7352;50.866;4.366;2022-12-04T07:18:51;3.90;99.90
14531;DHT22;7352;50.866;4.366;2022-12-04T07:21:22;4.10;99.90
14531;DHT22;7352;50.866;4.366;2022-12-04T07:23:50;4.00;99.90
14531;DHT22;7352;50.866;4.366;2022-12-04T07:26:18;3.90;99.90
14531;DHT22;7352;50.866;4.366;2022-12-04T07:28:45;4.00;99.90
14531;DHT22;7352;50.866;4.366;2022-12-04T07:31:18;4.00;99.90
14531;DHT22;7352;50.866;4.366;2022-12-04T07:33:46;4.10;99.90
14531;DHT22;7352;50.866;4.366;2022-12-04T07:36:15;4.10;99.90
14531;DHT22;7352;50.866;4.366;2022-12-04T07:38:45;4.00;99.90
14531;DHT22;7352;50.866;4.366;2022-12-04T07:41:13;4.00;99.90
14531;DHT22;7352;50.866;4.366;2022-12-04T07:43:40;4.10;99.90
14531;DHT22;7352;50.866;4.366;2022-12-04T07:46:10;4.10;99.90
14531;DHT22;7352;50.866;4.366;2022-12-04T07:48:38;4.10;99.90
14531;DHT22;7352;50.866;4.366;2022-12-04T07:51:06;4.10;99.90
14531;DHT22;7352;50.866;4.366;2022-12-04T07:53:35;3.90;99.90
14531;DHT22;7352;50.866;4.366;2022-12-04T07:56:05;4.00;99.90
14531;DHT22;7352;50.866;4.366;2022-12-04T07:58:32;4.00;99.90
14531;DHT22;7352;50.866;4.366;2022-12-04T08:01:07;4.00;99.90
14531;DHT22;7352;50.866;4.366;2022-12-04T08:03:35;4.00;99.90
14531;DHT22;7352;50.866;4.366;2022-12-04T08:06:03;3.90;99.90
14531;DHT22;7352;50.866;4.366;2022-12-04T08:08:30;3.90;99.90
14531;DHT22;7352;50.866;4.366;2022-12-04T08:11:07;3.80;99.90
14531;DHT22;7352;50.866;4.366;2022-12-04T08:13:34;3.70;99.90
14531;DHT22;7352;50.866;4.366;2022-12-04T08:16:01;3.80;99.90
14531;DHT22;7352;50.866;4.366;2022-12-04T08:18:30;3.90;99.90
14531;DHT22;7352;50.866;4.366;2022-12-04T08:21:04;3.90;99.90
14531;DHT22;7352;50.866;4.366;2022-12-04T08:23:31;3.90;99.90
14531;DHT22;7352;50.866;4.366;2022-12-04T08:25:59;3.90;99.90
14531;DHT22;7352;50.866;4.366;2022-12-04T08:28:28;4.00;99.90
14531;DHT22;7352;50.866;4.366;2022-12-04T08:31:01;3.90;99.90
14531;DHT22;7352;50.866;4.366;2022-12-04T08:33:29;4.10;99.90
14531;DHT22;7352;50.866;4.366;2022-12-04T08:35:57;4.00;99.90
14531;DHT22;7352;50.866;4.366;2022-12-04T08:38:25;4.00;99.90
14531;DHT22;7352;50.866;4.366;2022-12-04T08:40:53;4.10;99.90
14531;DHT22;7352;50.866;4.366;2022-12-04T08:43:24;4.10;99.90
14531;DHT22;7352;50.866;4.366;2022-12-04T08:45:56;4.20;99.90
14531;DHT22;7352;50.866;4.366;2022-12-04T08:48:23;4.20;99.90
14531;DHT22;7352;50.866;4.366;2022-12-04T08:50:50;4.20;99.90
14531;DHT22;7352;50.866;4.366;2022-12-04T08:53:17;4.40;99.90
14531;DHT22;7352;50.866;4.366;2022-12-04T08:55:45;4.50;99.90
14531;DHT22;7352;50.866;4.366;2022-12-04T08:58:13;4.50;99.90
14531;DHT22;7352;50.866;4.366;2022-12-04T09:00:43;4.40;99.90
14531;DHT22;7352;50.866;4.366;2022-12-04T09:03:18;4.50;99.90
14531;DHT22;7352;50.866;4.366;2022-12-04T09:05:47;4.40;99.90
14531;DHT22;7352;50.866;4.366;2022-12-04T09:08:17;4.50;99.90
14531;DHT22;7352;50.866;4.366;2022-12-04T09:11:09;4.40;99.90
14531;DHT22;7352;50.866;4.366;2022-12-04T09:13:45;4.30;99.90
14531;DHT22;7352;50.866;4.366;2022-12-04T09:16:13;4.30;99.90
14531;DHT22;7352;50.866;4.366;2022-12-04T09:18:58;4.30;99.90
14531;DHT22;7352;50.866;4.366;2022-12-04T09:21:28;4.40;99.90
14531;DHT22;7352;50.866;4.366;2022-12-04T09:23:59;4.50;99.90
14531;DHT22;7352;50.866;4.366;2022-12-04T09:29:44;4.30;99.90
14531;DHT22;7352;50.866;4.366;2022-12-04T09:32:14;4.30;99.90
14531;DHT22;7352;50.866;4.366;2022-12-04T09:34:50;4.40;99.90
14531;DHT22;7352;50.866;4.366;2022-12-04T09:37:30;4.50;99.90
14531;DHT22;7352;50.866;4.366;2022-12-04T09:39:58;4.30;99.90
14531;DHT22;7352;50.866;4.366;2022-12-04T09:42:39;4.40;99.90
14531;DHT22;7352;50.866;4.366;2022-12-04T09:45:19;4.50;99.90
14531;DHT22;7352;50.866;4.366;2022-12-04T09:47:50;4.40;99.90
14531;DHT22;7352;50.866;4.366;2022-12-04T09:50:23;4.40;99.90
14531;DHT22;7352;50.866;4.366;2022-12-04T09:52:54;4.40;99.90
14531;DHT22;7352;50.866;4.366;2022-12-04T09:55:26;4.50;99.90
14531;DHT22;7352;50.866;4.366;2022-12-04T09:57:56;4.50;99.90
14531;DHT22;7352;50.866;4.366;2022-12-04T10:00:29;4.60;99.90
14531;DHT22;7352;50.866;4.366;2022-12-04T10:03:04;4.60;99.90
14531;DHT22;7352;50.866;4.366;2022-12-04T10:05:49;4.60;99.90
14531;DHT22;7352;50.866;4.366;2022-12-04T10:08:21;4.50;99.90
14531;DHT22;7352;50.866;4.366;2022-12-04T10:15:59;4.70;99.90
14531;DHT22;7352;50.866;4.366;2022-12-04T10:18:36;4.60;99.90
14531;DHT22;7352;50.866;4.366;2022-12-04T10:21:25;4.70;99.90
14531;DHT22;7352;50.866;4.366;2022-12-04T10:24:10;4.60;99.90
14531;DHT22;7352;50.866;4.366;2022-12-04T10:26:44;4.80;99.90
14531;DHT22;7352;50.866;4.366;2022-12-04T10:29:17;4.80;99.90
14531;DHT22;7352;50.866;4.366;2022-12-04T10:31:46;4.70;99.90
14531;DHT22;7352;50.866;4.366;2022-12-04T10:34:18;4.80;99.90
14531;DHT22;7352;50.866;4.366;2022-12-04T10:36:51;4.80;99.90
14531;DHT22;7352;50.866;4.366;2022-12-04T10:39:23;4.80;99.90
14531;DHT22;7352;50.866;4.366;2022-12-04T10:42:00;4.80;99.90
14531;DHT22;7352;50.866;4.366;2022-12-04T10:44:29;4.70;99.90
14531;DHT22;7352;50.866;4.366;2022-12-04T10:46:59;4.70;99.90
14531;DHT22;7352;50.866;4.366;2022-12-04T10:49:27;4.90;99.90
14531;DHT22;7352;50.866;4.366;2022-12-04T10:51:57;4.80;99.90
14531;DHT22;7352;50.866;4.366;2022-12-04T10:54:29;4.90;99.90
14531;DHT22;7352;50.866;4.366;2022-12-04T10:57:01;5.00;99.90
14531;DHT22;7352;50.866;4.366;2022-12-04T10:59:32;4.90;99.90
14531;DHT22;7352;50.866;4.366;2022-12-04T11:02:04;4.90;99.90
14531;DHT22;7352;50.866;4.366;2022-12-04T11:04:33;4.70;99.90
14531;DHT22;7352;50.866;4.366;2022-12-04T11:07:04;4.80;99.90
14531;DHT22;7352;50.866;4.366;2022-12-04T11:09:37;4.70;99.90
14531;DHT22;7352;50.866;4.366;2022-12-04T11:12:08;4.80;99.90
14531;DHT22;7352;50.866;4.366;2022-12-04T11:14:35;5.00;99.90
14531;DHT22;7352;50.866;4.366;2022-12-04T11:17:04;4.90;99.90
14531;DHT22;7352;50.866;4.366;2022-12-04T11:19:33;4.80;99.90
14531;DHT22;7352;50.866;4.366;2022-12-04T11:22:11;4.80;99.90
14531;DHT22;7352;50.866;4.366;2022-12-04T11:24:40;4.70;99.90
14531;DHT22;7352;50.866;4.366;2022-12-04T11:27:19;4.90;99.90
14531;DHT22;7352;50.866;4.366;2022-12-04T11:29:49;4.80;99.90
14531;DHT22;7352;50.866;4.366;2022-12-04T11:32:20;4.70;99.90
14531;DHT22;7352;50.866;4.366;2022-12-04T11:34:49;4.90;99.90
14531;DHT22;7352;50.866;4.366;2022-12-04T11:37:23;5.10;99.90
14531;DHT22;7352;50.866;4.366;2022-12-04T11:39:51;4.90;99.90
14531;DHT22;7352;50.866;4.366;2022-12-04T11:42:22;4.90;99.90
14531;DHT22;7352;50.866;4.366;2022-12-04T11:44:52;4.90;99.90
14531;DHT22;7352;50.866;4.366;2022-12-04T11:47:31;5.00;99.90
14531;DHT22;7352;50.866;4.366;2022-12-04T11:50:12;4.90;99.90
14531;DHT22;7352;50.866;4.366;2022-12-04T11:52:59;4.90;99.90
14531;DHT22;7352;50.866;4.366;2022-12-04T11:55:39;5.00;99.90
14531;DHT22;7352;50.866;4.366;2022-12-04T12:01:10;4.90;99.90
14531;DHT22;7352;50.866;4.366;2022-12-04T12:03:55;5.10;99.90
14531;DHT22;7352;50.866;4.366;2022-12-04T12:06:34;4.90;99.90
14531;DHT22;7352;50.866;4.366;2022-12-04T12:09:14;4.90;99.90
14531;DHT22;7352;50.866;4.366;2022-12-04T12:11:49;4.90;99.90
14531;DHT22;7352;50.866;4.366;2022-12-04T12:14:20;4.80;99.90
14531;DHT22;7352;50.866;4.366;2022-12-04T12:16:57;4.70;99.90
14531;DHT22;7352;50.866;4.366;2022-12-04T12:19:48;4.60;99.90
14531;DHT22;7352;50.866;4.366;2022-12-04T12:22:32;4.50;99.90
14531;DHT22;7352;50.866;4.366;2022-12-04T12:25:11;4.50;99.90
14531;DHT22;7352;50.866;4.366;2022-12-04T12:28:10;4.70;99.90
14531;DHT22;7352;50.866;4.366;2022-12-04T12:30:50;4.70;99.90
14531;DHT22;7352;50.866;4.366;2022-12-04T12:33:21;4.90;99.90
14531;DHT22;7352;50.866;4.366;2022-12-04T12:35:55;4.90;99.90
14531;DHT22;7352;50.866;4.366;2022-12-04T12:38:26;4.80;99.90
14531;DHT22;7352;50.866;4.366;2022-12-04T12:41:01;4.90;99.90
14531;DHT22;7352;50.866;4.366;2022-12-04T12:43:31;4.70;99.90
14531;DHT22;7352;50.866;4.366;2022-12-04T12:46:03;4.70;99.90
14531;DHT22;7352;50.866;4.366;2022-12-04T12:48:36;4.80;99.90
14531;DHT22;7352;50.866;4.366;2022-12-04T12:51:11;5.00;99.90
14531;DHT22;7352;50.866;4.366;2022-12-04T12:53:46;5.00;99.90
14531;DHT22;7352;50.866;4.366;2022-12-04T12:56:15;4.80;99.90
14531;DHT22;7352;50.866;4.366;2022-12-04T12:58:47;4.70;99.90
14531;DHT22;7352;50.866;4.366;2022-12-04T13:01:17;4.80;99.90
14531;DHT22;7352;50.866;4.366;2022-12-04T13:03:49;5.00;99.90
14531;DHT22;7352;50.866;4.366;2022-12-04T13:06:22;4.90;99.90
14531;DHT22;7352;50.866;4.366;2022-12-04T13:09:01;4.80;99.90
14531;DHT22;7352;50.866;4.366;2022-12-04T13:11:50;4.80;99.90
14531;DHT22;7352;50.866;4.366;2022-12-04T13:14:21;4.80;99.90
14531;DHT22;7352;50.866;4.366;2022-12-04T13:16:59;4.80;99.90
14531;DHT22;7352;50.866;4.366;2022-12-04T13:19:33;4.70;99.90
14531;DHT22;7352;50.866;4.366;2022-12-04T13:22:17;4.60;99.90
14531;DHT22;7352;50.866;4.366;2022-12-04T13:27:49;4.50;99.90
14531;DHT22;7352;50.866;4.366;2022-12-04T13:30:21;4.70;99.90
14531;DHT22;7352;50.866;4.366;2022-12-04T13:39:42;4.70;99.90
14531;DHT22;7352;50.866;4.366;2022-12-04T13:42:21;4.70;99.90
14531;DHT22;7352;50.866;4.366;2022-12-04T13:44:55;4.80;99.90
14531;DHT22;7352;50.866;4.366;2022-12-04T13:47:27;5.00;99.90
14531;DHT22;7352;50.866;4.366;2022-12-04T13:50:25;5.00;99.90
14531;DHT22;7352;50.866;4.366;2022-12-04T13:52:53;5.10;99.90
14531;DHT22;7352;50.866;4.366;2022-12-04T13:55:26;4.90;99.90
14531;DHT22;7352;50.866;4.366;2022-12-04T13:57:55;4.90;99.90
14531;DHT22;7352;50.866;4.366;2022-12-04T14:00:28;4.80;99.90
14531;DHT22;7352;50.866;4.366;2022-12-04T14:02:57;4.80;99.90
14531;DHT22;7352;50.866;4.366;2022-12-04T14:05:28;4.60;99.90
14531;DHT22;7352;50.866;4.366;2022-12-04T14:08:04;4.80;99.90
14531;DHT22;7352;50.866;4.366;2022-12-04T14:10:33;4.70;99.90
14531;DHT22;7352;50.866;4.366;2022-12-04T14:13:05;4.60;99.90
14531;DHT22;7352;50.866;4.366;2022-12-04T14:15:35;4.60;99.90
14531;DHT22;7352;50.866;4.366;2022-12-04T14:18:18;4.70;99.90
14531;DHT22;7352;50.866;4.366;2022-12-04T14:20:58;4.50;99.90
14531;DHT22;7352;50.866;4.366;2022-12-04T14:23:33;4.50;99.90
14531;DHT22;7352;50.866;4.366;2022-12-04T14:26:00;4.50;99.90
14531;DHT22;7352;50.866;4.366;2022-12-04T14:28:41;4.50;99.90
14531;DHT22;7352;50.866;4.366;2022-12-04T14:31:24;4.60;99.90
14531;DHT22;7352;50.866;4.366;2022-12-04T14:33:57;4.60;99.90
14531;DHT22;7352;50.866;4.366;2022-12-04T14:36:26;4.60;99.90
14531;DHT22;7352;50.866;4.366;2022-12-04T14:39:02;4.50;99.90
14531;DHT22;7352;50.866;4.366;2022-12-04T14:41:30;4.50;99.90
14531;DHT22;7352;50.866;4.366;2022-12-04T14:43:57;4.50;99.90
14531;DHT22;7352;50.866;4.366;2022-12-04T14:46:38;4.40;99.90
14531;DHT22;7352;50.866;4.366;2022-12-04T14:49:30;4.40;99.90
14531;DHT22;7352;50.866;4.366;2022-12-04T14:52:06;4.50;99.90
14531;DHT22;7352;50.866;4.366;2022-12-04T14:54:39;4.40;99.90
14531;DHT22;7352;50.866;4.366;2022-12-04T14:57:23;4.40;99.90
14531;DHT22;7352;50.866;4.366;2022-12-04T14:59:55;4.40;99.90
14531;DHT22;7352;50.866;4.366;2022-12-04T15:02:37;4.40;99.90
14531;DHT22;7352;50.866;4.366;2022-12-04T15:05:08;4.40;99.90
14531;DHT22;7352;50.866;4.366;2022-12-04T15:07:43;4.30;99.90
14531;DHT22;7352;50.866;4.366;2022-12-04T15:10:18;4.30;99.90
14531;DHT22;7352;50.866;4.366;2022-12-04T15:13:02;4.20;99.90
14531;DHT22;7352;50.866;4.366;2022-12-04T15:15:29;4.40;99.90
14531;DHT22;7352;50.866;4.366;2022-12-04T15:17:59;4.30;99.90
14531;DHT22;7352;50.866;4.366;2022-12-04T15:20:28;4.00;99.90
14531;DHT22;7352;50.866;4.366;2022-12-04T15:22:56;4.10;99.90
14531;DHT22;7352;50.866;4.366;2022-12-04T15:25:25;4.00;99.90
14531;DHT22;7352;50.866;4.366;2022-12-04T15:28:01;4.10;99.90
14531;DHT22;7352;50.866;4.366;2022-12-04T15:30:29;4.10;99.90
14531;DHT22;7352;50.866;4.366;2022-12-04T15:32:59;3.90;99.90
14531;DHT22;7352;50.866;4.366;2022-12-04T15:35:30;3.90;99.90
14531;DHT22;7352;50.866;4.366;2022-12-04T15:37:59;4.00;99.90
14531;DHT22;7352;50.866;4.366;2022-12-04T15:40:28;4.00;99.90
14531;DHT22;7352;50.866;4.366;2022-12-04T15:43:14;4.00;99.90
14531;DHT22;7352;50.866;4.366;2022-12-04T15:45:42;4.00;99.90
14531;DHT22;7352;50.866;4.366;2022-12-04T15:48:10;4.10;99.90
14531;DHT22;7352;50.866;4.366;2022-12-04T15:50:57;4.00;99.90
14531;DHT22;7352;50.866;4.366;2022-12-04T15:53:28;4.00;99.90
14531;DHT22;7352;50.866;4.366;2022-12-04T15:55:58;4.10;99.90
14531;DHT22;7352;50.866;4.366;2022-12-04T15:58:27;4.10;99.90
14531;DHT22;7352;50.866;4.366;2022-12-04T16:00:57;4.00;99.90
14531;DHT22;7352;50.866;4.366;2022-12-04T16:03:29;4.00;99.90
14531;DHT22;7352;50.866;4.366;2022-12-04T16:06:12;4.10;99.90
14531;DHT22;7352;50.866;4.366;2022-12-04T16:08:42;4.20;99.90
14531;DHT22;7352;50.866;4.366;2022-12-04T16:11:23;4.20;99.90
14531;DHT22;7352;50.866;4.366;2022-12-04T16:14:18;4.30;99.90
14531;DHT22;7352;50.866;4.366;2022-12-04T16:16:47;4.30;99.90
14531;DHT22;7352;50.866;4.366;2022-12-04T16:19:22;4.30;99.90
14531;DHT22;7352;50.866;4.366;2022-12-04T16:21:50;4.30;99.90
14531;DHT22;7352;50.866;4.366;2022-12-04T16:24:17;4.20;99.90
14531;DHT22;7352;50.866;4.366;2022-12-04T16:26:49;4.20;99.90
14531;DHT22;7352;50.866;4.366;2022-12-04T16:29:16;4.20;99.90
14531;DHT22;7352;50.866;4.366;2022-12-04T16:31:43;4.20;99.90
14531;DHT22;7352;50.866;4.366;2022-12-04T16:34:12;4.30;99.90
14531;DHT22;7352;50.866;4.366;2022-12-04T16:36:40;4.20;99.90
14531;DHT22;7352;50.866;4.366;2022-12-04T16:39:08;4.20;99.90
14531;DHT22;7352;50.866;4.366;2022-12-04T16:41:35;4.40;99.90
14531;DHT22;7352;50.866;4.366;2022-12-04T16:44:02;4.30;99.90
14531;DHT22;7352;50.866;4.366;2022-12-04T16:46:29;4.40;99.90
14531;DHT22;7352;50.866;4.366;2022-12-04T16:48:56;4.40;99.90
14531;DHT22;7352;50.866;4.366;2022-12-04T16:51:24;4.40;99.90
14531;DHT22;7352;50.866;4.366;2022-12-04T16:53:54;4.50;99.90
14531;DHT22;7352;50.866;4.366;2022-12-04T16:56:22;4.40;99.90